createdAt,value
2022-08-27T00:01:58.133Z,22.67
2022-08-27T00:04:55.093Z,22.67
2022-08-27T00:07:52.036Z,22.38
2022-08-27T00:10:48.995Z,22.35
2022-08-27T00:13:46.075Z,22.36
2022-08-27T00:16:43.262Z,22.29
2022-08-27T00:19:41.068Z,22.23
2022-08-27T00:22:38.114Z,22.28
2022-08-27T00:25:35.199Z,22.30
2022-08-27T00:28:33.428Z,22.31
2022-08-27T00:31:30.931Z,22.14
2022-08-27T00:34:27.940Z,22.12
2022-08-27T00:37:25.942Z,22.21
2022-08-27T00:40:23.419Z,22.30
2022-08-27T00:43:25.144Z,22.21
2022-08-27T00:46:25.655Z,22.16
2022-08-27T00:49:44.455Z,22.32
2022-08-27T00:52:51.578Z,22.31
2022-08-27T00:56:21.340Z,22.35
2022-08-27T00:59:19.467Z,22.35
2022-08-27T01:02:20.185Z,22.35
2022-08-27T01:05:19.268Z,22.41
2022-08-27T01:08:21.735Z,22.35
2022-08-27T01:11:18.899Z,22.51
2022-08-27T01:14:16.208Z,22.50
2022-08-27T01:17:15.047Z,22.47
2022-08-27T01:20:17.680Z,22.42
2022-08-27T01:23:27.589Z,22.31
2022-08-27T01:26:25.252Z,22.08
2022-08-27T01:29:21.658Z,21.94
2022-08-27T01:32:23.346Z,21.92
2022-08-27T01:35:21.475Z,21.95
2022-08-27T01:38:30.699Z,21.90
2022-08-27T01:41:28.888Z,21.95
2022-08-27T01:44:25.968Z,22.02
2022-08-27T01:47:23.947Z,22.11
2022-08-27T01:50:32.739Z,21.96
2022-08-27T01:53:30.469Z,21.94
2022-08-27T01:56:28.082Z,21.82
2022-08-27T01:59:25.706Z,21.74
2022-08-27T02:02:37.165Z,21.87
2022-08-27T02:05:43.799Z,21.78
2022-08-27T02:08:42.137Z,21.79
2022-08-27T02:11:44.797Z,21.80
2022-08-27T02:14:42.004Z,21.91
2022-08-27T02:17:39.279Z,22.01
2022-08-27T02:20:36.263Z,21.86
2022-08-27T02:23:33.219Z,21.91
2022-08-27T02:26:30.134Z,21.92
2022-08-27T02:29:27.422Z,21.98
2022-08-27T02:32:32.318Z,21.91
2022-08-27T02:35:31.089Z,21.96
2022-08-27T02:38:27.982Z,21.97
2022-08-27T02:41:25.098Z,21.98
2022-08-27T02:44:22.416Z,21.90
2022-08-27T02:47:19.957Z,21.84
2022-08-27T02:50:17.557Z,21.76
2022-08-27T02:53:14.859Z,21.79
2022-08-27T02:56:13.159Z,21.71
2022-08-27T02:59:15.102Z,21.70
2022-08-27T03:02:12.527Z,21.65
2022-08-27T03:05:11.432Z,21.70
2022-08-27T03:08:09.537Z,21.78
2022-08-27T03:11:09.904Z,21.90
2022-08-27T03:14:09.101Z,22.01
2022-08-27T03:17:25.052Z,21.94
2022-08-27T03:20:22.567Z,21.73
2022-08-27T03:23:22.584Z,21.72
2022-08-27T03:26:20.304Z,21.65
2022-08-27T03:29:16.943Z,21.70
2022-08-27T03:32:14.101Z,21.62
2022-08-27T03:35:11.777Z,21.66
2022-08-27T03:38:10.224Z,21.71
2022-08-27T03:41:07.205Z,21.81
2022-08-27T03:44:04.199Z,21.78
2022-08-27T03:47:01.505Z,21.73
2022-08-27T03:50:00.793Z,21.80
2022-08-27T03:52:58.443Z,21.85
2022-08-27T03:55:55.109Z,21.78
2022-08-27T03:58:52.297Z,21.78
2022-08-27T04:01:49.026Z,21.55
2022-08-27T04:04:45.980Z,21.55
2022-08-27T04:07:43.250Z,21.47
2022-08-27T04:10:41.077Z,21.52
2022-08-27T04:13:38.187Z,21.41
2022-08-27T04:16:35.775Z,21.34
2022-08-27T04:19:33.683Z,21.32
2022-08-27T04:22:31.022Z,21.24
2022-08-27T04:25:28.550Z,21.07
2022-08-27T04:28:26.475Z,21.19
2022-08-27T04:31:24.144Z,21.23
2022-08-27T04:34:21.176Z,21.27
2022-08-27T04:37:21.471Z,21.29
2022-08-27T04:40:20.309Z,21.31
2022-08-27T04:43:17.769Z,21.13
2022-08-27T04:46:22.704Z,21.09
2022-08-27T04:49:20.232Z,21.20
2022-08-27T04:52:17.099Z,21.22
2022-08-27T04:55:14.173Z,21.24
2022-08-27T04:58:11.393Z,21.26
2022-08-27T05:01:09.200Z,21.13
2022-08-27T05:04:06.483Z,21.04
2022-08-27T05:07:04.580Z,21.14
2022-08-27T05:10:02.463Z,21.23
2022-08-27T05:13:00.079Z,21.20
2022-08-27T05:15:59.059Z,21.17
2022-08-27T05:18:58.357Z,21.30
2022-08-27T05:21:55.013Z,21.11
2022-08-27T05:24:52.247Z,21.05
2022-08-27T05:27:49.140Z,20.94
2022-08-27T05:30:49.289Z,20.88
2022-08-27T05:33:52.057Z,21.07
2022-08-27T05:36:50.035Z,21.16
2022-08-27T05:39:46.972Z,21.27
2022-08-27T05:42:49.248Z,21.16
2022-08-27T05:45:48.783Z,21.20
2022-08-27T05:48:46.220Z,21.25
2022-08-27T05:51:43.508Z,21.27
2022-08-27T05:54:41.284Z,21.10
2022-08-27T05:57:38.576Z,20.90
2022-08-27T06:01:02.483Z,20.82
2022-08-27T06:04:01.530Z,20.76
2022-08-27T06:06:59.011Z,20.78
2022-08-27T06:09:58.144Z,20.72
2022-08-27T06:12:57.592Z,20.70
2022-08-27T06:16:03.325Z,20.54
2022-08-27T06:19:04.800Z,20.65
2022-08-27T06:22:09.766Z,20.82
2022-08-27T06:25:08.811Z,20.80
2022-08-27T06:28:06.680Z,20.82
2022-08-27T06:31:18.701Z,21.00
2022-08-27T06:34:16.755Z,21.05
2022-08-27T06:37:14.519Z,20.87
2022-08-27T06:40:11.816Z,20.56
2022-08-27T06:43:09.603Z,20.43
2022-08-27T06:46:09.426Z,20.39
2022-08-27T06:49:06.596Z,20.57
2022-08-27T06:52:04.312Z,20.72
2022-08-27T06:55:03.743Z,20.68
2022-08-27T06:58:01.887Z,20.83
2022-08-27T07:00:59.487Z,21.00
2022-08-27T07:03:58.386Z,20.97
2022-08-27T07:06:55.178Z,20.96
2022-08-27T07:09:52.618Z,20.94
2022-08-27T07:12:50.528Z,20.83
2022-08-27T07:15:47.598Z,20.85
2022-08-27T07:18:48.944Z,20.93
2022-08-27T07:21:46.338Z,20.86
2022-08-27T07:24:43.303Z,20.93
2022-08-27T07:27:40.498Z,21.02
2022-08-27T07:30:38.145Z,21.07
2022-08-27T07:33:36.391Z,20.74
2022-08-27T07:36:34.679Z,20.96
2022-08-27T07:39:32.486Z,20.66
2022-08-27T07:42:56.270Z,20.91
2022-08-27T07:45:56.278Z,21.09
2022-08-27T07:48:55.494Z,21.22
2022-08-27T07:51:52.611Z,21.21
2022-08-27T07:54:49.389Z,21.11
2022-08-27T07:57:48.071Z,21.17
2022-08-27T08:00:45.511Z,21.19
2022-08-27T08:03:42.243Z,21.27
2022-08-27T08:06:39.596Z,21.24
2022-08-27T08:09:36.647Z,21.39
2022-08-27T08:12:38.567Z,21.51
2022-08-27T08:15:35.952Z,21.57
2022-08-27T08:18:33.404Z,21.50
2022-08-27T08:21:30.258Z,21.49
2022-08-27T08:24:27.263Z,21.41
2022-08-27T08:27:24.508Z,21.53
2022-08-27T08:30:21.299Z,21.37
2022-08-27T08:33:18.630Z,21.47
2022-08-27T08:36:16.073Z,21.51
2022-08-27T08:39:13.591Z,21.62
2022-08-27T08:42:39.342Z,21.63
2022-08-27T08:45:36.901Z,21.60
2022-08-27T08:48:34.670Z,21.91
2022-08-27T08:51:36.972Z,22.06
2022-08-27T08:54:34.627Z,22.12
2022-08-27T08:57:35.480Z,22.08
2022-08-27T09:00:32.464Z,21.97
2022-08-27T09:03:29.339Z,22.01
2022-08-27T09:06:43.375Z,22.02
2022-08-27T09:10:03.972Z,21.93
2022-08-27T09:13:03.714Z,21.87
2022-08-27T09:16:02.479Z,21.92
2022-08-27T09:19:02.263Z,21.88
2022-08-27T09:22:10.375Z,21.95
2022-08-27T09:25:17.892Z,22.04
2022-08-27T09:28:44.360Z,22.13
2022-08-27T09:31:41.974Z,22.06
2022-08-27T09:34:41.003Z,22.14
2022-08-27T09:37:46.125Z,22.25
2022-08-27T09:40:48.317Z,22.18
2022-08-27T09:43:45.716Z,22.09
2022-08-27T09:46:52.467Z,22.04
2022-08-27T09:49:49.380Z,22.09
2022-08-27T09:52:59.357Z,22.20
2022-08-27T09:56:01.763Z,22.05
2022-08-27T09:59:04.829Z,22.09
2022-08-27T10:02:04.382Z,22.16
2022-08-27T10:05:13.928Z,22.34
2022-08-27T10:08:17.643Z,22.20
2022-08-27T10:11:26.314Z,22.11
2022-08-27T10:14:39.093Z,22.36
2022-08-27T10:18:21.458Z,22.37
2022-08-27T10:21:36.808Z,22.48
2022-08-27T10:24:57.817Z,22.39
2022-08-27T10:28:05.144Z,22.25
2022-08-27T10:31:31.442Z,22.48
2022-08-27T10:34:46.138Z,22.40
2022-08-27T10:38:11.873Z,22.12
2022-08-27T10:41:23.610Z,22.21
2022-08-27T10:44:31.867Z,22.38
2022-08-27T10:47:43.068Z,22.41
2022-08-27T10:50:40.446Z,22.45
2022-08-27T10:54:15.441Z,22.42
2022-08-27T10:57:39.938Z,22.21
2022-08-27T11:00:56.494Z,22.49
2022-08-27T11:04:18.682Z,22.37
2022-08-27T11:07:20.830Z,22.35
2022-08-27T11:10:24.802Z,22.46
2022-08-27T11:13:38.734Z,22.16
2022-08-27T11:16:45.418Z,22.44
2022-08-27T11:19:50.926Z,22.58
2022-08-27T11:22:57.044Z,22.53
2022-08-27T11:25:55.730Z,22.57
2022-08-27T11:29:01.470Z,22.66
2022-08-27T11:32:04.523Z,22.52
2022-08-27T11:35:23.094Z,22.45
2022-08-27T11:38:37.203Z,22.37
2022-08-27T11:41:56.594Z,22.28
2022-08-27T11:44:58.045Z,22.48
2022-08-27T11:47:58.500Z,22.51
2022-08-27T11:50:56.571Z,22.49
2022-08-27T11:54:01.967Z,22.45
2022-08-27T11:56:59.936Z,22.52
2022-08-27T11:59:57.966Z,22.61
2022-08-27T12:03:06.339Z,22.55
2022-08-27T12:06:10.093Z,22.76
2022-08-27T12:09:20.090Z,22.80
2022-08-27T12:12:56.479Z,22.80
2022-08-27T12:16:03.265Z,22.78
2022-08-27T12:19:31.414Z,22.85
2022-08-27T12:22:28.542Z,22.89
2022-08-27T12:25:25.766Z,22.71
2022-08-27T12:28:26.730Z,22.79
2022-08-27T12:31:24.658Z,22.67
2022-08-27T12:34:26.777Z,22.53
2022-08-27T12:37:27.495Z,22.34
2022-08-27T12:40:26.523Z,22.29
2022-08-27T12:43:26.277Z,22.62
2022-08-27T12:46:23.912Z,22.91
2022-08-27T12:49:37.888Z,22.91
2022-08-27T12:52:42.262Z,23.14
2022-08-27T12:56:01.673Z,23.16
2022-08-27T12:59:11.603Z,23.19
2022-08-27T13:02:43.982Z,23.23
2022-08-27T13:05:47.122Z,23.08
2022-08-27T13:08:44.742Z,22.94
2022-08-27T13:11:47.072Z,23.03
2022-08-27T13:14:44.742Z,23.15
2022-08-27T13:17:47.037Z,22.92
2022-08-27T13:20:52.712Z,22.99
2022-08-27T13:23:57.806Z,23.05
2022-08-27T13:26:57.327Z,23.03
2022-08-27T13:29:55.185Z,23.10
2022-08-27T13:32:53.135Z,23.22
2022-08-27T13:35:51.065Z,23.17
2022-08-27T13:38:50.337Z,23.17
2022-08-27T13:41:47.837Z,23.19
2022-08-27T13:44:48.170Z,23.26
2022-08-27T13:47:47.600Z,23.39
2022-08-27T13:50:50.124Z,23.31
2022-08-27T13:54:06.774Z,23.20
2022-08-27T13:57:09.989Z,23.09
2022-08-27T14:00:15.048Z,23.17
2022-08-27T14:03:34.639Z,23.42
2022-08-27T14:06:42.020Z,23.66
2022-08-27T14:09:47.834Z,23.57
2022-08-27T14:13:00.336Z,23.70
2022-08-27T14:15:59.228Z,23.67
2022-08-27T14:19:09.246Z,23.93
2022-08-27T14:22:06.664Z,23.90
2022-08-27T14:25:03.848Z,24.11
2022-08-27T14:28:00.787Z,24.27
2022-08-27T14:30:58.568Z,24.11
2022-08-27T14:33:55.755Z,24.10
2022-08-27T14:36:54.977Z,23.91
2022-08-27T14:39:53.102Z,23.87
2022-08-27T14:42:50.967Z,23.97
2022-08-27T14:45:48.755Z,23.96
2022-08-27T14:48:51.571Z,23.98
2022-08-27T14:51:49.151Z,24.06
2022-08-27T14:54:47.612Z,24.12
2022-08-27T14:57:45.606Z,23.99
2022-08-27T15:00:45.844Z,24.09
2022-08-27T15:03:49.642Z,24.16
2022-08-27T15:06:46.881Z,24.13
2022-08-27T15:09:46.682Z,24.43
2022-08-27T15:12:44.078Z,24.05
2022-08-27T15:15:41.505Z,23.99
2022-08-27T15:18:39.057Z,24.03
2022-08-27T15:21:37.391Z,24.07
2022-08-27T15:24:40.882Z,24.18
2022-08-27T15:27:39.165Z,24.25
2022-08-27T15:30:37.958Z,24.23
2022-08-27T15:33:34.888Z,24.28
2022-08-27T15:36:31.940Z,24.29
2022-08-27T15:39:28.761Z,24.29
2022-08-27T15:42:28.985Z,24.13
2022-08-27T15:45:27.503Z,24.13
2022-08-27T15:48:25.234Z,24.15
2022-08-27T15:51:30.248Z,24.15
2022-08-27T15:54:28.057Z,24.24
2022-08-27T15:57:24.974Z,24.05
2022-08-27T16:00:22.300Z,23.99
2022-08-27T16:03:19.959Z,23.90
2022-08-27T16:06:26.729Z,23.88
2022-08-27T16:09:24.397Z,23.86
2022-08-27T16:12:27.107Z,23.86
2022-08-27T16:15:25.164Z,23.58
2022-08-27T16:18:28.716Z,23.58
2022-08-27T16:21:26.099Z,23.78
2022-08-27T16:24:23.478Z,23.72
2022-08-27T16:27:20.927Z,23.70
2022-08-27T16:30:20.067Z,23.83
2022-08-27T16:33:23.435Z,23.80
2022-08-27T16:36:21.239Z,23.55
2022-08-27T16:39:18.631Z,23.54
2022-08-27T16:42:15.870Z,23.53
2022-08-27T16:45:14.368Z,23.60
2022-08-27T16:48:30.880Z,23.62
2022-08-27T16:51:32.638Z,23.38
2022-08-27T16:54:30.583Z,23.36
2022-08-27T16:57:27.836Z,23.43
2022-08-27T17:00:24.629Z,23.37
2022-08-27T17:03:22.451Z,23.33
2022-08-27T17:06:21.068Z,23.07
2022-08-27T17:09:19.903Z,22.95
2022-08-27T17:12:19.149Z,22.98
2022-08-27T17:15:17.254Z,22.67
2022-08-27T17:18:15.218Z,22.40
2022-08-27T17:21:13.167Z,22.54
2022-08-27T17:24:12.571Z,22.70
2022-08-27T17:27:10.056Z,22.64
2022-08-27T17:30:08.571Z,22.68
2022-08-27T17:33:06.869Z,22.43
2022-08-27T17:36:05.275Z,22.55
2022-08-27T17:39:03.944Z,22.52
2022-08-27T17:42:00.918Z,22.33
2022-08-27T17:44:59.251Z,22.25
2022-08-27T17:47:56.734Z,22.33
2022-08-27T17:50:54.131Z,22.31
2022-08-27T17:53:58.455Z,22.52
2022-08-27T17:56:59.179Z,22.22
2022-08-27T17:59:55.941Z,22.11
2022-08-27T18:02:53.738Z,21.91
2022-08-27T18:05:51.098Z,22.01
2022-08-27T18:08:48.175Z,21.65
2022-08-27T18:11:46.402Z,21.51
2022-08-27T18:14:49.598Z,21.46
2022-08-27T18:17:47.096Z,21.33
2022-08-27T18:20:44.700Z,21.39
2022-08-27T18:23:42.878Z,21.28
2022-08-27T18:26:39.959Z,21.24
2022-08-27T18:29:36.897Z,21.12
2022-08-27T18:32:33.755Z,20.90
2022-08-27T18:35:32.322Z,20.69
2022-08-27T18:38:29.705Z,20.77
2022-08-27T18:41:27.123Z,21.08
2022-08-27T18:44:24.677Z,21.25
2022-08-27T18:47:22.111Z,21.44
2022-08-27T18:50:19.433Z,21.30
2022-08-27T18:53:18.150Z,21.35
2022-08-27T18:56:16.707Z,21.44
2022-08-27T18:59:14.026Z,21.52
2022-08-27T19:02:14.810Z,21.62
2022-08-27T19:05:13.055Z,21.63
2022-08-27T19:08:10.178Z,21.59
2022-08-27T19:11:07.974Z,21.51
2022-08-27T19:14:05.270Z,21.53
2022-08-27T19:17:03.312Z,21.46
2022-08-27T19:20:01.554Z,21.62
2022-08-27T19:22:59.691Z,21.67
2022-08-27T19:25:57.571Z,21.71
2022-08-27T19:28:54.665Z,21.59
2022-08-27T19:31:52.248Z,21.46
2022-08-27T19:34:50.353Z,21.53
2022-08-27T19:37:53.220Z,21.43
2022-08-27T19:40:51.229Z,21.45
2022-08-27T19:43:48.292Z,21.44
2022-08-27T19:46:47.332Z,21.67
2022-08-27T19:49:49.866Z,21.69
2022-08-27T19:52:48.145Z,21.68
2022-08-27T19:55:46.124Z,21.72
2022-08-27T19:58:43.095Z,21.57
2022-08-27T20:01:40.273Z,21.29
2022-08-27T20:04:55.908Z,21.29
2022-08-27T20:07:53.035Z,21.35
2022-08-27T20:10:50.223Z,21.46
2022-08-27T20:13:50.457Z,21.51
2022-08-27T20:16:48.432Z,21.51
2022-08-27T20:19:46.201Z,21.25
2022-08-27T20:22:47.823Z,21.24
2022-08-27T20:25:45.438Z,21.23
2022-08-27T20:28:43.261Z,21.29
2022-08-27T20:31:41.291Z,21.35
2022-08-27T20:34:38.870Z,21.41
2022-08-27T20:37:40.010Z,21.48
2022-08-27T20:40:38.835Z,21.51
2022-08-27T20:43:36.338Z,21.47
2022-08-27T20:46:34.592Z,21.54
2022-08-27T20:49:32.332Z,21.54
2022-08-27T20:52:30.246Z,21.43
2022-08-27T20:55:27.064Z,21.46
2022-08-27T20:58:43.262Z,21.46
2022-08-27T21:01:40.225Z,21.48
2022-08-27T21:04:42.005Z,21.22
2022-08-27T21:07:39.020Z,21.06
2022-08-27T21:10:36.059Z,20.89
2022-08-27T21:13:32.792Z,20.60
2022-08-27T21:16:29.973Z,20.56
2022-08-27T21:19:26.922Z,20.44
2022-08-27T21:22:24.312Z,20.21
2022-08-27T21:25:24.547Z,20.23
2022-08-27T21:28:22.022Z,20.41
2022-08-27T21:31:19.294Z,20.49
2022-08-27T21:34:16.045Z,20.73
2022-08-27T21:37:14.050Z,20.82
2022-08-27T21:40:11.451Z,20.86
2022-08-27T21:43:08.855Z,20.84
2022-08-27T21:46:06.132Z,20.65
2022-08-27T21:49:02.938Z,20.69
2022-08-27T21:52:03.334Z,20.69
2022-08-27T21:54:59.989Z,20.66
2022-08-27T21:57:56.920Z,20.83
2022-08-27T22:00:54.045Z,20.76
2022-08-27T22:03:51.797Z,20.76
2022-08-27T22:06:49.049Z,20.72
2022-08-27T22:09:52.207Z,20.51
2022-08-27T22:12:49.032Z,20.61
2022-08-27T22:15:46.542Z,20.61
2022-08-27T22:18:44.497Z,20.53
2022-08-27T22:21:42.235Z,20.66
2022-08-27T22:24:39.054Z,20.77
2022-08-27T22:27:36.177Z,20.81
2022-08-27T22:30:32.760Z,20.77
2022-08-27T22:33:30.201Z,20.67
2022-08-27T22:36:27.192Z,20.57
2022-08-27T22:39:24.216Z,20.55
2022-08-27T22:42:22.005Z,20.51
2022-08-27T22:45:19.364Z,20.43
2022-08-27T22:48:15.986Z,20.36
2022-08-27T22:51:13.309Z,20.48
2022-08-27T22:54:10.222Z,20.48
2022-08-27T22:57:06.897Z,20.18
2022-08-27T23:00:11.763Z,19.75
2022-08-27T23:03:10.244Z,19.95
2022-08-27T23:06:07.077Z,20.17
2022-08-27T23:09:04.418Z,20.26
2022-08-27T23:12:01.407Z,20.43
2022-08-27T23:14:59.151Z,20.48
2022-08-27T23:17:56.759Z,20.47
2022-08-27T23:20:53.941Z,20.36
2022-08-27T23:23:50.932Z,20.30
2022-08-27T23:27:06.564Z,20.15
2022-08-27T23:30:04.777Z,20.13
2022-08-27T23:33:02.144Z,20.21
2022-08-27T23:35:59.002Z,20.26
2022-08-27T23:38:58.273Z,20.34
2022-08-27T23:41:55.480Z,20.21
2022-08-27T23:44:53.189Z,20.23
2022-08-27T23:47:50.238Z,20.25
2022-08-27T23:50:47.222Z,20.25
2022-08-27T23:53:44.249Z,20.20
2022-08-27T23:56:41.061Z,20.06
2022-08-27T23:59:37.933Z,20.06
